Terminal Aerodrome Forecast
Issued by NWS

Home | Current Version | Previous Version | Text Only | Print | Product List | Glossary On
Versions: 1 2 3 4 5 6 7 8 9 10 11 12
000
FTAK31 PAJN 250524
TAFAWG
TAF
PAWG 250524Z 2506/2606 VRB04KT P6SM BKN060 OVC080
     FM251000 VRB03KT P6SM BKN025 OVC050
     FM251800 27005KT P6SM VCSH OVC050
      AMD LTD TO CLD VIS AND WIND 2506/2515=

USA.gov is the U.S. government's official web portal to all federal, state and local government web resources and services.